createdAt,value
2023-10-15T00:00:35.935Z,8.30
2023-10-15T00:03:04.605Z,8.10
2023-10-15T00:05:32.450Z,8.80
2023-10-15T00:08:00.125Z,8.50
2023-10-15T00:10:29.189Z,9.00
2023-10-15T00:12:57.620Z,7.90
2023-10-15T00:15:27.251Z,8.70
2023-10-15T00:17:56.054Z,8.10
2023-10-15T00:20:27.973Z,8.20
2023-10-15T00:22:55.910Z,8.40
2023-10-15T00:25:23.451Z,8.70
2023-10-15T00:27:58.345Z,7.90
2023-10-15T00:30:33.962Z,8.20
2023-10-15T00:33:05.241Z,7.60
2023-10-15T00:35:36.210Z,7.50
2023-10-15T00:38:16.819Z,7.50
2023-10-15T00:40:46.887Z,8.10
2023-10-15T00:43:19.216Z,7.80
2023-10-15T00:45:48.035Z,8.40
2023-10-15T00:48:38.366Z,8.80
2023-10-15T00:51:13.143Z,8.80
2023-10-15T00:53:52.102Z,8.10
2023-10-15T00:56:23.878Z,8.90
2023-10-15T00:58:54.421Z,8.90
2023-10-15T01:01:28.158Z,8.50
2023-10-15T01:03:57.473Z,8.40
2023-10-15T01:06:35.741Z,8.10
2023-10-15T01:09:28.739Z,8.60
2023-10-15T01:11:57.826Z,8.90
2023-10-15T01:14:49.422Z,9.20
2023-10-15T01:17:17.827Z,8.40
2023-10-15T01:19:46.836Z,9.00
2023-10-15T01:22:19.227Z,8.40
2023-10-15T01:24:52.122Z,8.30
2023-10-15T01:27:29.224Z,8.00
2023-10-15T01:29:59.681Z,8.10
2023-10-15T01:32:27.479Z,8.40
2023-10-15T01:34:56.683Z,7.40
2023-10-15T01:37:24.636Z,7.70
2023-10-15T01:40:02.538Z,8.40
2023-10-15T01:42:30.809Z,8.30
2023-10-15T01:45:15.108Z,8.10
2023-10-15T01:48:05.652Z,8.60
2023-10-15T01:50:45.967Z,9.90
2023-10-15T01:53:13.662Z,8.20
2023-10-15T01:55:54.562Z,8.90
2023-10-15T01:58:25.821Z,8.20
2023-10-15T02:00:53.978Z,8.30
2023-10-15T02:03:21.707Z,8.60
2023-10-15T02:05:49.597Z,7.50
2023-10-15T02:08:26.311Z,7.40
2023-10-15T02:10:57.434Z,8.00
2023-10-15T02:13:28.198Z,7.00
2023-10-15T02:15:57.803Z,8.60
2023-10-15T02:18:31.132Z,7.80
2023-10-15T02:20:59.035Z,8.40
2023-10-15T02:23:27.074Z,8.50
2023-10-15T02:26:00.142Z,9.20
2023-10-15T02:31:12.107Z,7.80
2023-10-15T02:36:11.622Z,7.40
2023-10-15T02:38:41.286Z,7.90
2023-10-15T02:41:08.884Z,8.60
2023-10-15T02:43:42.609Z,8.00
2023-10-15T02:46:23.583Z,7.40
2023-10-15T02:48:55.045Z,6.70
2023-10-15T02:51:26.467Z,7.20
2023-10-15T02:53:56.450Z,7.40
2023-10-15T02:56:24.393Z,6.90
2023-10-15T02:58:55.601Z,6.80
2023-10-15T03:01:25.569Z,7.70
2023-10-15T03:03:57.501Z,7.60
2023-10-15T03:06:33.268Z,7.20
2023-10-15T03:09:01.349Z,6.00
2023-10-15T03:11:35.347Z,6.80
2023-10-15T03:14:03.153Z,7.10
2023-10-15T03:16:31.827Z,6.70
2023-10-15T03:19:08.869Z,6.70
2023-10-15T03:21:40.152Z,6.80
2023-10-15T03:24:09.226Z,7.10
2023-10-15T03:26:37.202Z,6.20
2023-10-15T03:29:15.006Z,6.90
2023-10-15T03:31:50.312Z,6.30
2023-10-15T03:34:23.810Z,7.60
2023-10-15T03:36:53.284Z,5.80
2023-10-15T03:39:28.789Z,6.20
2023-10-15T03:42:11.425Z,7.40
2023-10-15T03:44:45.356Z,6.60
2023-10-15T03:49:41.385Z,6.80
2023-10-15T03:52:10.106Z,8.40
2023-10-15T03:54:39.445Z,8.90
2023-10-15T03:57:10.020Z,8.20
2023-10-15T03:59:45.896Z,9.40
2023-10-15T04:02:24.123Z,9.90
2023-10-15T04:05:10.864Z,9.60
2023-10-15T04:07:50.830Z,9.50
2023-10-15T04:10:25.566Z,10.30
2023-10-15T04:12:53.507Z,9.40
2023-10-15T04:15:23.929Z,10.10
2023-10-15T04:17:52.854Z,10.20
2023-10-15T04:20:34.645Z,8.00
2023-10-15T04:23:02.767Z,8.70
2023-10-15T04:25:34.513Z,8.50
2023-10-15T04:28:13.444Z,10.00
2023-10-15T04:30:41.472Z,8.30
2023-10-15T04:33:12.447Z,11.10
2023-10-15T04:35:42.249Z,9.20
2023-10-15T04:38:10.206Z,9.70
2023-10-15T04:41:10.153Z,9.00
2023-10-15T04:43:46.895Z,10.10
2023-10-15T04:46:26.888Z,9.80
2023-10-15T04:48:56.511Z,9.90
2023-10-15T04:51:39.858Z,9.10
2023-10-15T04:54:07.433Z,11.20
2023-10-15T04:56:35.015Z,9.40
2023-10-15T04:59:02.707Z,9.70
2023-10-15T05:01:31.531Z,11.50
2023-10-15T05:03:59.181Z,11.90
2023-10-15T05:06:27.015Z,10.00
2023-10-15T05:08:55.225Z,9.40
2023-10-15T05:11:23.260Z,8.90
2023-10-15T05:13:51.671Z,8.40
2023-10-15T05:16:20.293Z,9.00
2023-10-15T05:18:48.900Z,10.00
2023-10-15T05:21:16.614Z,8.90
2023-10-15T05:23:44.156Z,9.40
2023-10-15T05:26:11.965Z,8.80
2023-10-15T05:28:39.673Z,7.50
2023-10-15T05:31:07.300Z,6.90
2023-10-15T05:33:34.951Z,7.90
2023-10-15T05:36:02.592Z,6.30
2023-10-15T05:38:31.008Z,7.30
2023-10-15T05:40:59.106Z,6.80
2023-10-15T05:43:27.096Z,7.50
2023-10-15T05:45:55.135Z,7.10
2023-10-15T05:48:22.740Z,7.20
2023-10-15T05:50:50.639Z,7.10
2023-10-15T05:53:18.474Z,7.40
2023-10-15T05:55:46.382Z,6.90
2023-10-15T05:58:14.138Z,7.80
2023-10-15T06:00:41.851Z,7.20
2023-10-15T06:03:10.680Z,7.60
2023-10-15T06:05:38.459Z,8.10
2023-10-15T06:08:06.672Z,7.30
2023-10-15T06:10:34.745Z,6.90
2023-10-15T06:13:03.234Z,7.70
2023-10-15T06:15:31.012Z,8.00
2023-10-15T06:18:00.387Z,8.20
2023-10-15T06:20:28.309Z,8.80
2023-10-15T06:22:59.690Z,7.30
2023-10-15T06:25:27.350Z,7.10
2023-10-15T06:27:55.017Z,6.30
2023-10-15T06:30:24.734Z,6.50
2023-10-15T06:32:54.432Z,6.10
2023-10-15T06:35:23.808Z,6.30
2023-10-15T06:37:53.553Z,6.20
2023-10-15T06:40:24.070Z,5.70
2023-10-15T06:42:53.987Z,5.80
2023-10-15T06:45:22.380Z,5.90
2023-10-15T06:47:54.932Z,5.90
2023-10-15T06:50:25.742Z,6.10
2023-10-15T06:52:54.506Z,6.50
2023-10-15T06:55:22.626Z,5.70
2023-10-15T06:57:50.797Z,5.70
2023-10-15T07:00:25.258Z,5.60
2023-10-15T07:02:54.002Z,5.00
2023-10-15T07:05:22.612Z,5.30
2023-10-15T07:07:50.375Z,5.60
2023-10-15T07:10:18.449Z,5.40
2023-10-15T07:12:46.659Z,5.60
2023-10-15T07:15:15.287Z,5.40
2023-10-15T07:17:43.450Z,5.00
2023-10-15T07:20:23.300Z,4.80
2023-10-15T07:22:51.764Z,5.00
2023-10-15T07:25:20.014Z,4.30
2023-10-15T07:27:48.553Z,4.60
2023-10-15T07:30:16.873Z,3.80
2023-10-15T07:32:45.497Z,4.20
2023-10-15T07:35:14.303Z,5.00
2023-10-15T07:37:42.416Z,3.70
2023-10-15T07:40:23.080Z,4.30
2023-10-15T07:42:52.360Z,4.10
2023-10-15T07:45:21.352Z,4.30
2023-10-15T07:47:49.069Z,4.50
2023-10-15T07:50:21.529Z,4.10
2023-10-15T07:52:50.849Z,4.60
2023-10-15T07:55:19.082Z,4.50
2023-10-15T07:57:47.933Z,4.20
2023-10-15T08:00:24.524Z,4.50
2023-10-15T08:03:00.065Z,3.90
2023-10-15T08:05:30.128Z,4.10
2023-10-15T08:07:59.288Z,3.80
2023-10-15T08:10:34.000Z,4.30
2023-10-15T08:13:03.290Z,4.10
2023-10-15T08:15:31.043Z,3.90
2023-10-15T08:17:58.891Z,4.60
2023-10-15T08:20:27.659Z,4.50
2023-10-15T08:22:55.396Z,4.50
2023-10-15T08:25:23.849Z,4.30
2023-10-15T08:27:51.440Z,4.20
2023-10-15T08:30:19.281Z,3.60
2023-10-15T08:32:47.732Z,3.90
2023-10-15T08:35:16.487Z,4.10
2023-10-15T08:37:44.614Z,3.60
2023-10-15T08:40:19.379Z,3.60
2023-10-15T08:43:06.687Z,3.80
2023-10-15T08:45:36.306Z,3.10
2023-10-15T08:48:07.426Z,2.80
2023-10-15T08:50:37.644Z,3.70
2023-10-15T08:53:08.439Z,3.40
2023-10-15T08:55:39.613Z,3.50
2023-10-15T08:58:08.492Z,3.50
2023-10-15T09:00:38.102Z,3.60
2023-10-15T09:03:05.956Z,3.90
2023-10-15T09:05:42.127Z,4.00
2023-10-15T09:08:10.154Z,3.70
2023-10-15T09:10:42.249Z,3.60
2023-10-15T09:13:17.770Z,3.70
2023-10-15T09:15:56.870Z,3.70
2023-10-15T09:18:28.163Z,3.50
2023-10-15T09:20:59.966Z,3.50
2023-10-15T09:23:32.089Z,3.90
2023-10-15T09:25:59.720Z,3.20
2023-10-15T09:28:29.829Z,3.60
2023-10-15T09:31:08.348Z,4.20
2023-10-15T09:33:36.141Z,3.90
2023-10-15T09:36:04.377Z,3.80
2023-10-15T09:38:36.094Z,4.00
2023-10-15T09:41:03.890Z,3.80
2023-10-15T09:43:38.110Z,3.60
2023-10-15T09:46:08.025Z,4.10
2023-10-15T09:48:38.520Z,3.80
2023-10-15T09:51:09.137Z,3.50
2023-10-15T09:53:37.467Z,2.90
2023-10-15T09:56:09.199Z,3.90
2023-10-15T09:58:38.619Z,4.40
2023-10-15T10:01:18.024Z,4.50
2023-10-15T10:03:49.847Z,4.00
2023-10-15T10:06:31.797Z,3.50
2023-10-15T10:09:39.613Z,3.60
2023-10-15T10:12:15.297Z,3.40
2023-10-15T10:15:07.680Z,4.00
2023-10-15T10:17:35.489Z,2.80
2023-10-15T10:20:12.376Z,3.00
2023-10-15T10:22:44.062Z,2.80
2023-10-15T10:25:30.146Z,2.50
2023-10-15T10:28:17.493Z,3.50
2023-10-15T10:30:59.233Z,2.70
2023-10-15T10:33:45.561Z,2.40
2023-10-15T10:36:16.385Z,2.00
2023-10-15T10:38:47.995Z,2.60
2023-10-15T10:41:25.929Z,3.30
2023-10-15T10:44:09.736Z,3.60
2023-10-15T10:49:15.860Z,2.80
2023-10-15T10:51:44.015Z,2.60
2023-10-15T10:54:16.879Z,3.00
2023-10-15T10:56:47.347Z,2.70
2023-10-15T10:59:17.532Z,3.40
2023-10-15T11:01:47.316Z,2.80
2023-10-15T11:04:17.746Z,3.20
2023-10-15T11:06:49.893Z,3.50
2023-10-15T11:09:17.938Z,3.40
2023-10-15T11:11:47.362Z,3.20
2023-10-15T11:14:15.767Z,3.20
2023-10-15T11:16:46.869Z,3.10
2023-10-15T11:19:22.381Z,3.50
2023-10-15T11:21:51.113Z,3.20
2023-10-15T11:24:19.392Z,3.30
2023-10-15T11:26:47.211Z,3.40
2023-10-15T11:29:21.647Z,3.10
2023-10-15T11:31:58.793Z,3.20
2023-10-15T11:34:27.792Z,3.30
2023-10-15T11:36:59.039Z,3.20
2023-10-15T11:47:28.932Z,2.60
2023-10-15T11:49:56.885Z,3.20
2023-10-15T11:52:24.580Z,3.30
2023-10-15T11:54:52.940Z,2.80
2023-10-15T11:57:30.088Z,2.80
2023-10-15T11:59:59.232Z,2.80
2023-10-15T12:02:28.406Z,2.50
2023-10-15T12:04:59.177Z,2.70
2023-10-15T12:07:30.189Z,3.10
2023-10-15T12:09:59.159Z,2.50
2023-10-15T12:12:27.753Z,2.50
2023-10-15T12:14:55.602Z,3.40
2023-10-15T12:17:23.351Z,3.10
2023-10-15T12:20:03.618Z,2.70
2023-10-15T12:22:35.650Z,2.30
2023-10-15T12:25:03.396Z,3.30
2023-10-15T12:27:31.012Z,3.20
2023-10-15T12:29:58.687Z,2.40
2023-10-15T12:32:42.818Z,3.50
2023-10-15T12:35:13.284Z,2.50
2023-10-15T12:37:41.018Z,2.90
2023-10-15T12:40:35.503Z,3.00
2023-10-15T12:43:09.924Z,3.40
2023-10-15T12:45:37.906Z,2.70
2023-10-15T12:48:06.777Z,3.10
2023-10-15T12:50:36.148Z,3.90
2023-10-15T12:53:04.096Z,4.00
2023-10-15T12:55:31.723Z,3.50
2023-10-15T12:57:59.326Z,3.30
2023-10-15T13:00:29.876Z,3.20
2023-10-15T13:02:57.797Z,2.70
2023-10-15T13:05:26.633Z,2.70
2023-10-15T13:07:54.964Z,2.60
2023-10-15T13:10:22.862Z,2.30
2023-10-15T13:12:54.101Z,2.50
2023-10-15T13:15:23.021Z,2.70
2023-10-15T13:17:50.956Z,3.10
2023-10-15T13:20:22.794Z,3.30
2023-10-15T13:22:50.632Z,2.30
2023-10-15T13:25:18.420Z,2.30
2023-10-15T13:27:46.130Z,2.70
2023-10-15T13:30:19.822Z,2.90
2023-10-15T13:35:16.394Z,2.80
2023-10-15T13:37:50.214Z,2.50
2023-10-15T13:40:19.981Z,2.70
2023-10-15T13:42:48.736Z,2.50
2023-10-15T13:45:19.189Z,2.40
2023-10-15T13:47:48.318Z,2.70
2023-10-15T13:50:19.144Z,2.60
2023-10-15T13:52:48.094Z,2.80
2023-10-15T13:55:17.055Z,2.70
2023-10-15T13:57:45.132Z,2.80
2023-10-15T14:00:14.019Z,2.80
2023-10-15T14:02:45.551Z,3.10
2023-10-15T14:05:17.125Z,3.10
2023-10-15T14:07:46.891Z,2.80
2023-10-15T14:10:16.625Z,2.80
2023-10-15T14:12:45.640Z,2.50
2023-10-15T14:15:17.868Z,3.20
2023-10-15T14:17:45.760Z,3.20
2023-10-15T14:20:17.424Z,2.50
2023-10-15T14:22:49.063Z,3.30
2023-10-15T14:25:16.939Z,2.70
2023-10-15T14:27:45.032Z,3.20
2023-10-15T14:30:13.743Z,3.50
2023-10-15T14:32:44.845Z,4.00
2023-10-15T14:35:12.838Z,3.60
2023-10-15T14:37:42.680Z,3.50
2023-10-15T14:40:11.703Z,4.00
2023-10-15T14:42:41.402Z,3.90
2023-10-15T14:45:13.296Z,4.30
2023-10-15T14:47:41.842Z,3.60
2023-10-15T14:50:12.025Z,3.40
2023-10-15T14:52:40.562Z,3.30
2023-10-15T14:55:08.444Z,3.40
2023-10-15T14:57:36.057Z,3.80
2023-10-15T15:00:05.685Z,4.50
2023-10-15T15:02:33.352Z,4.90
2023-10-15T15:05:01.158Z,5.60
2023-10-15T15:07:29.056Z,6.00
2023-10-15T15:09:56.696Z,4.80
2023-10-15T15:12:24.472Z,5.50
2023-10-15T15:14:52.007Z,5.60
2023-10-15T15:17:19.749Z,4.60
2023-10-15T15:19:47.748Z,4.20
2023-10-15T15:22:15.479Z,4.20
2023-10-15T15:24:43.128Z,4.40
2023-10-15T15:27:12.572Z,4.70
2023-10-15T15:29:40.963Z,4.50
2023-10-15T15:32:08.750Z,4.10
2023-10-15T15:34:37.114Z,3.80
2023-10-15T15:37:04.856Z,4.40
2023-10-15T15:39:32.782Z,4.60
2023-10-15T15:42:00.345Z,4.70
2023-10-15T15:44:28.228Z,4.30
2023-10-15T15:46:56.156Z,4.20
2023-10-15T15:49:23.815Z,4.90
2023-10-15T15:51:51.971Z,5.90
2023-10-15T15:54:22.780Z,4.30
2023-10-15T15:56:50.433Z,4.30
2023-10-15T15:59:19.690Z,5.10
2023-10-15T16:01:47.573Z,5.40
2023-10-15T16:04:15.374Z,5.60
2023-10-15T16:06:45.749Z,5.10
2023-10-15T16:09:13.459Z,5.30
2023-10-15T16:11:41.173Z,4.70
2023-10-15T16:14:08.884Z,4.10
2023-10-15T16:16:36.499Z,5.50
2023-10-15T16:19:07.531Z,6.30
2023-10-15T16:21:35.178Z,7.10
2023-10-15T16:24:03.821Z,8.10
2023-10-15T16:26:35.311Z,11.10
2023-10-15T16:29:03.040Z,11.30
2023-10-15T16:31:30.826Z,10.10
2023-10-15T16:33:58.557Z,11.70
2023-10-15T16:36:26.253Z,16.40
2023-10-15T16:38:54.536Z,16.60
2023-10-15T16:41:22.318Z,22.00
2023-10-15T16:43:50.069Z,24.40
2023-10-15T16:46:17.737Z,26.80
2023-10-15T16:48:45.397Z,30.80
2023-10-15T16:51:24.205Z,29.10
2023-10-15T16:53:54.419Z,28.80
2023-10-15T16:56:22.351Z,26.00
2023-10-15T16:58:51.114Z,28.50
2023-10-15T17:01:20.187Z,27.70
2023-10-15T17:03:47.874Z,26.80
2023-10-15T17:06:15.506Z,22.00
2023-10-15T17:08:44.114Z,29.70
2023-10-15T17:11:12.333Z,27.20
2023-10-15T17:13:40.336Z,35.00
2023-10-15T17:16:08.023Z,49.50
2023-10-15T17:18:35.897Z,50.20
2023-10-15T17:21:03.835Z,56.60
2023-10-15T17:23:31.512Z,52.00
2023-10-15T17:25:59.112Z,56.30
2023-10-15T17:28:27.151Z,50.90
2023-10-15T17:30:55.290Z,51.80
2023-10-15T17:33:23.014Z,43.80
2023-10-15T17:35:50.792Z,44.90
2023-10-15T17:38:20.238Z,40.20
2023-10-15T17:40:48.112Z,32.30
2023-10-15T17:43:16.078Z,30.50
2023-10-15T17:45:48.124Z,34.40
2023-10-15T17:48:16.213Z,26.90
2023-10-15T17:50:44.158Z,28.00
2023-10-15T17:53:12.083Z,29.30
2023-10-15T17:55:39.733Z,32.50
2023-10-15T17:58:07.423Z,32.90
2023-10-15T18:00:37.636Z,35.00
2023-10-15T18:03:06.213Z,33.90
2023-10-15T18:05:35.724Z,36.10
2023-10-15T18:08:03.623Z,46.60
2023-10-15T18:10:31.378Z,45.00
2023-10-15T18:12:59.544Z,55.60
2023-10-15T18:15:30.487Z,58.50
2023-10-15T18:17:58.780Z,56.10
2023-10-15T18:20:26.659Z,56.60
2023-10-15T18:22:54.323Z,59.70
2023-10-15T18:25:22.028Z,57.70
2023-10-15T18:27:49.766Z,56.60
2023-10-15T18:30:17.492Z,48.30
2023-10-15T18:32:45.988Z,48.20
2023-10-15T18:35:17.103Z,54.00
2023-10-15T18:37:45.145Z,48.20
2023-10-15T18:40:13.662Z,50.80
2023-10-15T18:42:41.386Z,43.60
2023-10-15T18:45:11.667Z,48.80
2023-10-15T18:47:39.562Z,43.40
2023-10-15T18:50:08.993Z,46.90
2023-10-15T18:52:37.139Z,45.30
2023-10-15T18:55:05.627Z,49.70
2023-10-15T18:57:33.529Z,46.30
2023-10-15T19:00:01.310Z,45.80
2023-10-15T19:02:29.215Z,39.50
2023-10-15T19:04:56.864Z,44.00
2023-10-15T19:07:24.602Z,40.70
2023-10-15T19:09:52.896Z,44.80
2023-10-15T19:12:20.638Z,40.30
2023-10-15T19:14:51.144Z,40.30
2023-10-15T19:17:18.744Z,34.60
2023-10-15T19:19:46.613Z,37.60
2023-10-15T19:22:15.400Z,33.50
2023-10-15T19:24:43.005Z,29.60
2023-10-15T19:27:11.776Z,26.70
2023-10-15T19:29:39.968Z,32.40
2023-10-15T19:32:07.649Z,22.50
2023-10-15T19:34:35.297Z,23.20
2023-10-15T19:37:03.038Z,26.40
2023-10-15T19:39:30.826Z,29.90
2023-10-15T19:42:01.841Z,28.30
2023-10-15T19:44:29.554Z,27.00
2023-10-15T19:46:57.314Z,25.70
2023-10-15T19:49:25.581Z,23.40
2023-10-15T19:51:53.268Z,25.90
2023-10-15T19:54:22.022Z,20.90
2023-10-15T19:56:51.033Z,22.10
2023-10-15T19:59:21.622Z,21.20
2023-10-15T20:01:49.356Z,20.90
2023-10-15T20:04:17.146Z,19.50
2023-10-15T20:06:45.670Z,16.90
2023-10-15T20:09:16.205Z,20.10
2023-10-15T20:11:44.170Z,19.90
2023-10-15T20:14:11.697Z,19.00
2023-10-15T20:16:39.316Z,17.60
2023-10-15T20:19:07.116Z,17.80
2023-10-15T20:21:37.184Z,15.90
2023-10-15T20:24:05.660Z,17.20
2023-10-15T20:26:33.415Z,18.80
2023-10-15T20:29:01.018Z,19.70
2023-10-15T20:31:28.615Z,18.10
2023-10-15T20:33:56.418Z,15.80
2023-10-15T20:36:24.181Z,15.00
2023-10-15T20:38:51.724Z,14.80
2023-10-15T20:41:19.339Z,15.10
2023-10-15T20:43:47.830Z,15.30
2023-10-15T20:46:15.636Z,14.40
2023-10-15T20:48:43.342Z,16.40
2023-10-15T20:51:11.553Z,15.60
2023-10-15T20:53:39.220Z,16.70
2023-10-15T20:56:06.780Z,16.60
2023-10-15T20:58:34.418Z,16.50
2023-10-15T21:01:02.194Z,16.50
2023-10-15T21:03:30.038Z,18.10
2023-10-15T21:05:59.350Z,17.40
2023-10-15T21:08:26.871Z,20.90
2023-10-15T21:10:54.425Z,22.20
2023-10-15T21:13:22.026Z,23.80
2023-10-15T21:15:49.784Z,25.60
2023-10-15T21:18:17.463Z,25.60
2023-10-15T21:20:48.282Z,24.90
2023-10-15T21:23:15.908Z,22.00
2023-10-15T21:25:43.667Z,18.00
2023-10-15T21:28:11.284Z,17.10
2023-10-15T21:30:38.997Z,16.30
2023-10-15T21:33:06.770Z,22.50
2023-10-15T21:35:38.019Z,16.40
2023-10-15T21:38:07.090Z,14.50
2023-10-15T21:40:34.628Z,15.40
2023-10-15T21:43:02.238Z,18.00
2023-10-15T21:45:29.871Z,19.20
2023-10-15T21:47:57.536Z,17.50
2023-10-15T21:50:25.155Z,20.50
2023-10-15T21:52:53.122Z,20.20
2023-10-15T21:55:20.750Z,19.40
2023-10-15T21:57:48.727Z,20.30
2023-10-15T22:00:30.972Z,19.60
2023-10-15T22:02:58.880Z,19.50
2023-10-15T22:05:26.729Z,18.50
2023-10-15T22:07:54.358Z,19.00
2023-10-15T22:10:23.253Z,18.00
2023-10-15T22:12:57.028Z,17.40
2023-10-15T22:17:56.154Z,17.40
2023-10-15T22:20:28.566Z,17.00
2023-10-15T22:22:56.828Z,16.60
2023-10-15T22:25:24.803Z,16.40
2023-10-15T22:27:52.456Z,17.20
2023-10-15T22:30:20.471Z,17.20
2023-10-15T22:32:51.554Z,16.50
2023-10-15T22:35:25.166Z,16.50
2023-10-15T22:37:53.423Z,16.40
2023-10-15T22:40:25.852Z,17.90
2023-10-15T22:42:53.548Z,16.90
2023-10-15T22:45:22.069Z,16.60
2023-10-15T22:47:51.455Z,16.10
2023-10-15T22:50:19.180Z,18.60
2023-10-15T22:52:46.703Z,18.50
2023-10-15T22:55:14.224Z,17.00
2023-10-15T22:57:43.037Z,16.80
2023-10-15T23:00:12.439Z,16.30
2023-10-15T23:02:41.537Z,17.10
2023-10-15T23:05:09.568Z,16.80
2023-10-15T23:07:39.091Z,15.80
2023-10-15T23:10:13.041Z,16.70
2023-10-15T23:12:48.511Z,14.00
2023-10-15T23:15:19.191Z,15.10
2023-10-15T23:17:47.389Z,15.80
2023-10-15T23:20:24.679Z,14.30
2023-10-15T23:22:52.856Z,15.10
2023-10-15T23:25:20.829Z,14.50
2023-10-15T23:27:51.280Z,13.90
2023-10-15T23:30:23.268Z,14.60
2023-10-15T23:32:54.495Z,15.00
2023-10-15T23:35:22.651Z,14.00
2023-10-15T23:37:50.425Z,14.60
2023-10-15T23:40:22.751Z,14.60
2023-10-15T23:42:53.186Z,15.50
2023-10-15T23:45:27.401Z,15.80
2023-10-15T23:48:14.262Z,16.40
2023-10-15T23:50:47.869Z,17.60
2023-10-15T23:53:21.393Z,18.30
2023-10-15T23:55:50.761Z,19.20
2023-10-15T23:58:18.850Z,16.70
